Time;durP1;ratioP1;P1;durP2;ratioP2;P2;SDS_P1;SDS_P2;PMS_P1;PMS_P2;Temp;Humidity;BMP_temperature;BMP_pressure;BME280_temperature;BME280_humidity;BME280_pressure;Samples;Min_cycle;Max_cycle;Signal;HPM_P1;HPM_P2
2023/08/10 00:00:12;;;;;;;14.60;14.10;;;17.40;99.90;;;;;;4898223;29;20581;-86
2023/08/10 00:02:45;;;;;;;14.63;14.20;;;17.30;99.90;;;;;;4897803;29;20460;-87
2023/08/10 00:05:18;;;;;;;14.73;14.03;;;17.20;99.90;;;;;;4896418;29;21082;-85
2023/08/10 00:07:49;;;;;;;14.30;13.90;;;17.20;27.50;;;;;;4916211;29;20469;-85
2023/08/10 00:10:20;;;;;;;14.30;13.73;;;17.20;99.90;;;;;;4902371;29;20476;-84
2023/08/10 00:12:53;;;;;;;14.37;13.97;;;17.20;5.60;;;;;;4904015;29;20472;-85
2023/08/10 00:15:23;;;;;;;15.03;14.53;;;17.20;99.90;;;;;;4900541;29;21018;-84
2023/08/10 00:17:57;;;;;;;14.67;14.17;;;17.20;99.90;;;;;;4898899;29;20468;-84
2023/08/10 00:20:39;;;;;;;15.00;14.40;;;17.20;99.90;;;;;;4901715;29;20492;-86
2023/08/10 00:23:10;;;;;;;14.50;14.10;;;17.10;1.00;;;;;;4894803;29;20492;-85
2023/08/10 00:25:39;;;;;;;15.20;14.70;;;17.10;35.00;;;;;;4918271;29;20525;-84
2023/08/10 00:28:10;;;;;;;14.83;14.33;;;17.10;1.00;;;;;;4905017;29;21880;-85
2023/08/10 00:30:44;;;;;;;14.80;14.30;;;17.10;35.40;;;;;;4902189;29;20468;-84
2023/08/10 00:33:17;;;;;;;15.20;14.80;;;17.10;99.90;;;;;;4898808;29;20492;-84
2023/08/10 00:36:06;;;;;;;15.80;15.10;;;17.00;95.00;;;;;;4902983;29;20485;-84
2023/08/10 00:38:38;;;;;;;14.60;14.20;;;16.90;1.00;;;;;;4897469;29;20466;-85
2023/08/10 00:41:09;;;;;;;15.50;15.00;;;16.90;93.50;;;;;;4900556;29;20472;-84
2023/08/10 00:43:49;;;;;;;14.80;14.40;;;16.90;1.00;;;;;;4903630;29;20476;-86
2023/08/10 00:46:20;;;;;;;14.20;13.80;;;17.00;1.00;;;;;;4902359;29;20876;-86
2023/08/10 00:48:51;;;;;;;14.47;14.07;;;17.00;1.00;;;;;;4902335;29;20477;-85
2023/08/10 00:51:27;;;;;;;15.00;14.40;;;16.90;1.00;;;;;;4905500;29;20470;-85
2023/08/10 00:53:58;;;;;;;14.33;13.93;;;16.90;1.00;;;;;;4915394;29;20501;-85
2023/08/10 00:56:39;;;;;;;14.50;14.10;;;16.80;1.00;;;;;;4897209;29;20525;-85
2023/08/10 00:59:10;;;;;;;14.97;14.47;;;16.80;1.00;;;;;;4911822;29;21248;-85
2023/08/10 01:01:42;;;;;;;14.37;13.77;;;16.80;1.00;;;;;;4897683;29;21079;-86
2023/08/10 01:04:19;;;;;;;14.60;14.00;;;16.80;1.00;;;;;;4896791;29;20495;-85
2023/08/10 01:07:02;;;;;;;14.20;13.70;;;16.80;1.00;;;;;;4908295;29;20970;-86
2023/08/10 01:09:54;;;;;;;14.17;13.77;;;16.60;99.90;;;;;;4912068;29;20769;-85
2023/08/10 01:12:31;;;;;;;15.03;14.47;;;16.60;1.00;;;;;;4892299;29;21065;-86
2023/08/10 01:15:10;;;;;;;14.70;14.23;;;16.60;1.00;;;;;;4893321;29;20489;-85
2023/08/10 01:17:58;;;;;;;14.73;14.30;;;16.50;1.00;;;;;;4900083;29;20458;-87
2023/08/10 01:20:33;;;;;;;14.40;14.00;;;16.50;99.90;;;;;;4900051;29;22077;-86
2023/08/10 01:23:16;;;;;;;14.27;13.87;;;16.50;1.00;;;;;;4898073;29;20500;-86
2023/08/10 01:25:57;;;;;;;14.97;14.47;;;16.40;1.00;;;;;;4911163;29;20464;-85
2023/08/10 01:28:37;;;;;;;14.80;14.40;;;16.40;99.90;;;;;;4895063;29;20465;-86
2023/08/10 01:31:16;;;;;;;15.10;14.60;;;16.30;55.10;;;;;;4895649;29;20475;-87
2023/08/10 01:33:48;;;;;;;15.30;14.60;;;16.30;99.90;;;;;;4894922;29;20521;-87
2023/08/10 01:36:22;;;;;;;15.10;14.60;;;16.20;99.90;;;;;;4892161;29;20461;-87
2023/08/10 01:38:53;;;;;;;14.40;14.00;;;16.20;1.00;;;;;;4914898;29;21019;-85
2023/08/10 01:41:36;;;;;;;15.07;14.57;;;16.20;1.00;;;;;;4901708;29;21719;-86
2023/08/10 01:44:09;;;;;;;14.90;14.50;;;16.20;99.90;;;;;;4901891;29;20496;-86
2023/08/10 01:46:41;;;;;;;14.63;14.17;;;16.20;99.90;;;;;;4901372;29;20476;-85
2023/08/10 01:49:14;;;;;;;14.27;13.87;;;16.20;1.00;;;;;;4904023;29;20472;-86
2023/08/10 01:51:53;;;;;;;15.30;14.67;;;16.20;99.90;;;;;;4899212;29;20461;-85
2023/08/10 01:54:28;;;;;;;14.93;14.53;;;16.30;99.90;;;;;;4901776;29;20583;-88
2023/08/10 01:57:11;;;;;;;15.63;15.03;;;16.20;1.00;;;;;;4909480;29;20561;-87
2023/08/10 01:59:42;;;;;;;15.43;14.93;;;16.20;1.00;;;;;;4918573;29;20465;-89
2023/08/10 02:02:12;;;;;;;15.03;14.63;;;16.20;1.00;;;;;;4908999;29;20482;-87
2023/08/10 02:05:04;;;;;;;14.87;14.47;;;16.10;1.00;;;;;;4908150;29;20493;-87
2023/08/10 02:07:36;;;;;;;14.63;14.23;;;16.10;1.00;;;;;;4901989;29;20499;-86
2023/08/10 02:10:09;;;;;;;15.00;14.50;;;16.20;99.90;;;;;;4904145;29;20464;-88
2023/08/10 02:12:46;;;;;;;14.83;14.43;;;16.10;99.90;;;;;;4903151;29;20471;-88
2023/08/10 02:15:23;;;;;;;15.10;14.60;;;16.10;99.90;;;;;;4901740;29;20521;-87
2023/08/10 02:18:04;;;;;;;15.20;14.70;;;16.00;1.00;;;;;;4904802;29;20473;-87
2023/08/10 02:20:33;;;;;;;14.57;14.17;;;16.00;99.90;;;;;;4905788;29;20571;-87
2023/08/10 02:23:07;;;;;;;14.83;14.27;;;16.00;99.90;;;;;;4902211;29;20868;-87
2023/08/10 02:25:47;;;;;;;14.73;14.33;;;16.00;1.00;;;;;;4919248;29;20516;-87
2023/08/10 02:28:20;;;;;;;14.93;14.43;;;15.90;99.90;;;;;;4898881;29;20460;-87
2023/08/10 02:30:55;;;;;;;15.13;14.63;;;15.90;1.00;;;;;;4900112;29;20469;-86
2023/08/10 02:33:28;;;;;;;15.00;14.43;;;15.90;1.00;;;;;;4919054;29;21515;-86
2023/08/10 02:35:58;;;;;;;15.03;14.60;;;15.90;1.00;;;;;;4897393;29;20508;-85
2023/08/10 02:38:29;;;;;;;14.50;14.10;;;16.00;99.90;;;;;;4906117;29;20470;-86
2023/08/10 02:41:04;;;;;;;14.93;14.43;;;15.90;1.00;;;;;;4904808;29;20479;-85
2023/08/10 02:43:37;;;;;;;14.60;14.20;;;15.90;1.00;;;;;;4918961;29;20503;-85
2023/08/10 02:46:11;;;;;;;15.27;14.87;;;15.90;99.90;;;;;;4906719;29;20521;-86
2023/08/10 02:48:44;;;;;;;14.50;14.10;;;15.90;1.00;;;;;;4904589;29;20459;-86
2023/08/10 02:51:18;;;;;;;14.60;14.20;;;15.90;1.00;;;;;;4906355;29;20463;-85
2023/08/10 02:53:52;;;;;;;15.20;14.70;;;15.80;1.00;;;;;;4895071;29;20484;-86
2023/08/10 02:56:24;;;;;;;14.50;14.00;;;15.80;1.00;;;;;;4900772;29;20884;-86
2023/08/10 02:59:02;;;;;;;14.17;13.77;;;15.70;99.90;;;;;;4908451;29;20572;-86
2023/08/10 03:01:33;;;;;;;14.80;14.20;;;15.80;1.00;;;;;;4904789;29;20472;-86
2023/08/10 03:04:12;;;;;;;14.77;14.27;;;15.70;99.90;;;;;;4901012;29;20498;-86
2023/08/10 03:06:58;;;;;;;14.43;14.00;;;15.70;94.50;;;;;;4901975;29;20476;-86
2023/08/10 03:09:43;;;;;;;15.07;14.60;;;15.70;1.00;;;;;;4900302;29;20838;-86
2023/08/10 03:12:15;;;;;;;14.43;14.00;;;15.80;99.90;;;;;;4896704;29;20464;-86
2023/08/10 03:14:48;;;;;;;14.50;14.10;;;15.70;99.90;;;;;;4901102;29;20479;-87
2023/08/10 03:17:25;;;;;;;14.80;14.20;;;15.70;99.90;;;;;;4893825;29;20464;-87
2023/08/10 03:19:54;;;;;;;14.27;13.87;;;15.70;1.00;;;;;;4907219;29;20881;-85
2023/08/10 03:22:27;;;;;;;14.83;14.37;;;15.70;1.00;;;;;;4908449;29;20463;-87
2023/08/10 03:24:59;;;;;;;14.90;14.40;;;15.60;1.00;;;;;;4908116;29;20485;-85
2023/08/10 03:27:30;;;;;;;14.50;14.00;;;15.60;6.60;;;;;;4904803;29;20462;-86
2023/08/10 03:30:16;;;;;;;15.10;14.60;;;15.60;99.90;;;;;;4903668;29;21023;-86
2023/08/10 03:32:52;;;;;;;15.80;15.30;;;15.50;1.00;;;;;;4902517;29;20468;-87
2023/08/10 03:35:26;;;;;;;15.07;14.57;;;15.60;99.90;;;;;;4898894;29;20480;-87
2023/08/10 03:37:59;;;;;;;14.83;14.30;;;15.50;1.00;;;;;;4902655;29;20476;-87
2023/08/10 03:40:31;;;;;;;15.47;14.90;;;15.50;1.00;;;;;;4903291;29;20500;-86
2023/08/10 03:43:06;;;;;;;15.03;14.53;;;15.50;1.00;;;;;;4901464;29;20480;-88
2023/08/10 03:45:41;;;;;;;15.17;14.67;;;15.50;1.00;;;;;;4900849;29;20463;-86
2023/08/10 03:48:16;;;;;;;14.77;14.27;;;15.50;1.00;;;;;;4899509;29;20460;-85
2023/08/10 03:50:51;;;;;;;14.67;14.27;;;15.50;99.90;;;;;;4896954;29;20474;-86
2023/08/10 03:53:19;;;;;;;16.40;15.60;;;15.40;1.00;;;;;;4896351;29;20522;-85
2023/08/10 03:55:50;;;;;;;14.90;14.30;;;15.40;99.90;;;;;;4896053;29;20490;-87
2023/08/10 03:58:25;;;;;;;15.43;14.90;;;15.50;1.00;;;;;;4900335;29;20984;-86
2023/08/10 04:00:57;;;;;;;15.00;14.50;;;15.40;11.40;;;;;;4896237;29;20560;-86
2023/08/10 04:03:31;;;;;;;15.70;15.10;;;15.40;1.00;;;;;;4899249;29;20488;-85
2023/08/10 04:06:02;;;;;;;15.50;14.90;;;15.40;1.00;;;;;;4899720;29;20495;-85
2023/08/10 04:08:34;;;;;;;15.60;15.10;;;15.30;99.90;;;;;;4902470;29;21062;-86
2023/08/10 04:11:10;;;;;;;16.13;15.63;;;15.40;97.10;;;;;;4899613;29;20485;-85
2023/08/10 04:13:46;;;;;;;15.60;15.00;;;15.40;99.90;;;;;;4902277;29;20511;-85
2023/08/10 04:16:22;;;;;;;15.80;15.30;;;15.40;99.90;;;;;;4903189;29;20478;-86
2023/08/10 04:18:58;;;;;;;15.93;15.43;;;15.40;1.00;;;;;;4899452;29;20477;-88
2023/08/10 04:21:40;;;;;;;16.13;15.53;;;15.40;30.80;;;;;;4898892;29;21050;-86
2023/08/10 04:24:13;;;;;;;15.90;15.40;;;15.30;99.90;;;;;;4914491;29;20471;-85
2023/08/10 04:26:46;;;;;;;15.50;14.90;;;15.30;99.90;;;;;;4900097;29;20465;-87
2023/08/10 04:29:25;;;;;;;15.20;14.80;;;15.30;1.00;;;;;;4898143;29;20557;-86
2023/08/10 04:32:03;;;;;;;15.90;15.17;;;15.30;1.00;;;;;;4896368;29;20914;-85
2023/08/10 04:34:42;;;;;;;15.80;15.30;;;15.30;67.80;;;;;;4906142;29;20515;-88
2023/08/10 04:37:13;;;;;;;15.80;15.30;;;15.30;1.00;;;;;;4901630;29;20478;-86
2023/08/10 04:39:49;;;;;;;15.77;15.27;;;15.30;1.00;;;;;;4897736;29;20463;-87
2023/08/10 04:42:19;;;;;;;15.30;14.90;;;15.30;1.00;;;;;;4901567;29;20469;-86
2023/08/10 04:44:54;;;;;;;15.70;15.20;;;15.30;99.90;;;;;;4900816;29;20503;-87
2023/08/10 04:47:31;;;;;;;15.73;15.23;;;15.30;1.00;;;;;;4916268;28;20511;-87
2023/08/10 04:50:06;;;;;;;16.50;15.63;;;15.30;1.00;;;;;;4901844;29;20472;-86
2023/08/10 04:52:41;;;;;;;16.27;15.67;;;15.30;99.90;;;;;;4902386;29;20474;-87
2023/08/10 04:55:15;;;;;;;16.00;15.50;;;15.30;99.90;;;;;;4902083;29;20470;-86
2023/08/10 04:57:57;;;;;;;15.80;15.30;;;15.30;1.00;;;;;;4911253;29;20480;-87
2023/08/10 05:00:33;;;;;;;16.63;15.80;;;15.30;1.00;;;;;;4916811;29;20463;-86
2023/08/10 05:03:11;;;;;;;15.77;15.17;;;15.40;1.00;;;;;;4903090;29;20555;-87
2023/08/10 05:05:50;;;;;;;16.00;15.50;;;15.40;99.00;;;;;;4895605;29;20597;-86
2023/08/10 05:08:26;;;;;;;15.20;14.80;;;15.40;99.90;;;;;;4897515;29;20461;-86
2023/08/10 05:11:05;;;;;;;16.13;15.43;;;15.40;99.90;;;;;;4896021;29;20599;-87
2023/08/10 05:13:38;;;;;;;16.07;15.47;;;15.40;99.90;;;;;;4897092;29;20575;-86
2023/08/10 05:16:14;;;;;;;16.00;15.40;;;15.50;99.90;;;;;;4904158;29;20475;-86
2023/08/10 05:18:55;;;;;;;15.67;15.17;;;15.50;99.90;;;;;;4910951;29;20547;-85
2023/08/10 05:21:27;;;;;;;15.80;15.20;;;15.50;99.90;;;;;;4907122;29;20469;-86
2023/08/10 05:23:59;;;;;;;16.47;15.87;;;15.50;23.10;;;;;;4917518;29;20488;-87
2023/08/10 05:26:40;;;;;;;16.13;15.40;;;15.60;1.00;;;;;;4903376;29;20447;-86
2023/08/10 05:29:31;;;;;;;16.03;15.47;;;15.60;1.00;;;;;;4904467;29;21418;-87
2023/08/10 05:32:05;;;;;;;16.27;15.67;;;15.70;99.90;;;;;;4904684;29;20453;-86
2023/08/10 05:34:38;;;;;;;15.97;15.37;;;15.70;1.00;;;;;;4908309;29;20483;-87
2023/08/10 05:37:12;;;;;;;16.20;15.70;;;15.80;1.00;;;;;;4905159;29;20487;-87
2023/08/10 05:39:42;;;;;;;16.10;15.50;;;15.90;1.00;;;;;;4907142;29;20551;-87
2023/08/10 05:42:16;;;;;;;16.10;15.60;;;15.90;99.90;;;;;;4909908;29;20472;-86
2023/08/10 05:44:59;;;;;;;16.13;15.53;;;16.00;99.90;;;;;;4904040;29;21120;-92
2023/08/10 05:47:30;;;;;;;16.27;15.53;;;16.00;1.00;;;;;;4905658;29;20472;-87
2023/08/10 05:50:08;;;;;;;16.30;15.80;;;16.00;1.00;;;;;;4904856;29;20465;-87
2023/08/10 05:52:45;;;;;;;16.33;15.80;;;16.10;1.00;;;;;;4904793;29;20467;-86
2023/08/10 05:55:20;;;;;;;16.40;15.90;;;16.20;1.00;;;;;;4903181;29;20499;-87
2023/08/10 05:58:00;;;;;;;17.63;16.92;;;16.20;24.50;;;;;;4916499;29;20546;-86
2023/08/10 06:00:36;;;;;;;17.30;16.70;;;16.10;99.90;;;;;;4900596;29;20205;-87
2023/08/10 06:03:08;;;;;;;17.60;16.90;;;16.30;99.90;;;;;;4897294;29;20486;-86
2023/08/10 06:05:44;;;;;;;18.50;17.70;;;16.40;99.90;;;;;;4915610;29;20541;-86
2023/08/10 06:08:14;;;;;;;17.53;16.83;;;16.40;99.90;;;;;;4908610;29;20448;-87
2023/08/10 06:10:44;;;;;;;17.23;16.53;;;16.50;99.90;;;;;;4914699;29;20493;-86
2023/08/10 06:13:17;;;;;;;17.60;17.00;;;16.60;99.90;;;;;;4903014;29;20841;-86
2023/08/10 06:15:55;;;;;;;18.40;17.40;;;16.60;99.90;;;;;;4902483;29;21030;-85
2023/08/10 06:18:34;;;;;;;17.10;16.50;;;16.70;1.00;;;;;;4904968;29;20496;-86
2023/08/10 06:21:14;;;;;;;18.47;17.70;;;16.70;1.00;;;;;;4906247;29;20463;-85
2023/08/10 06:23:56;;;;;;;18.33;17.40;;;16.70;99.90;;;;;;4904363;29;20480;-89
2023/08/10 06:26:30;;;;;;;17.93;17.30;;;16.80;1.00;;;;;;4901286;29;20468;-87
2023/08/10 06:29:08;;;;;;;17.97;17.30;;;16.80;1.00;;;;;;4899139;29;20484;-87
2023/08/10 06:31:43;;;;;;;18.20;17.30;;;16.90;99.90;;;;;;4903639;29;21008;-86
2023/08/10 06:34:19;;;;;;;17.97;17.17;;;16.90;1.00;;;;;;4905540;29;21083;-83
2023/08/10 06:36:55;;;;;;;18.50;17.80;;;17.00;99.90;;;;;;4903623;29;20465;-84
2023/08/10 06:39:30;;;;;;;18.23;17.50;;;17.00;99.90;;;;;;4904964;29;20474;-84
2023/08/10 06:42:08;;;;;;;18.93;18.03;;;17.00;1.00;;;;;;4905988;29;20457;-84
2023/08/10 06:44:45;;;;;;;18.13;17.43;;;17.10;99.90;;;;;;4903168;29;20482;-86
2023/08/10 06:47:21;;;;;;;18.60;17.90;;;17.10;1.00;;;;;;4904845;29;20466;-84
2023/08/10 06:50:00;;;;;;;18.70;17.90;;;17.20;99.90;;;;;;4901048;29;20561;-84
2023/08/10 06:52:38;;;;;;;19.60;18.60;;;17.10;1.00;;;;;;4917324;29;20984;-84
2023/08/10 06:55:13;;;;;;;18.30;17.53;;;17.10;99.90;;;;;;4903398;29;20833;-84
2023/08/10 06:57:59;;;;;;;19.67;18.40;;;17.20;99.90;;;;;;4895578;29;21011;-84
2023/08/10 07:00:39;;;;;;;17.97;17.27;;;17.30;1.00;;;;;;4902133;29;20458;-84
2023/08/10 07:03:18;;;;;;;18.37;17.57;;;17.40;1.00;;;;;;4904015;29;20486;-84
2023/08/10 07:05:55;;;;;;;19.37;18.13;;;17.40;1.00;;;;;;4900632;29;20920;-84
2023/08/10 07:08:28;;;;;;;18.30;17.60;;;17.40;1.00;;;;;;4901460;29;21009;-84
2023/08/10 07:11:05;;;;;;;18.57;17.87;;;17.50;99.90;;;;;;4884368;29;20501;-85
2023/08/10 07:13:41;;;;;;;18.77;18.00;;;17.60;99.90;;;;;;4895145;29;20481;-84
2023/08/10 07:16:18;;;;;;;19.00;18.20;;;17.60;1.00;;;;;;4895577;29;20989;-84
2023/08/10 07:19:19;;;;;;;18.40;17.70;;;17.70;99.90;;;;;;4911072;29;20589;-83
2023/08/10 07:21:56;;;;;;;18.13;17.33;;;17.80;99.90;;;;;;4898086;29;20525;-85
2023/08/10 07:24:34;;;;;;;19.20;18.40;;;17.80;1.00;;;;;;4895590;29;20501;-83
2023/08/10 07:27:08;;;;;;;18.93;18.23;;;17.90;1.00;;;;;;4900360;29;20470;-84
2023/08/10 07:29:37;;;;;;;19.57;18.77;;;17.90;17.30;;;;;;4897312;29;20496;-83
2023/08/10 07:32:08;;;;;;;19.13;18.37;;;18.00;1.00;;;;;;4899489;29;20486;-83
2023/08/10 07:34:41;;;;;;;19.13;18.33;;;18.10;1.00;;;;;;4944848;23;20497;-85
2023/08/10 07:37:12;;;;;;;19.33;18.40;;;18.20;36.10;;;;;;4899199;29;20936;-83
2023/08/10 07:40:13;;;;;;;19.43;18.73;;;18.30;1.00;;;;;;4898749;29;20481;-85
2023/08/10 07:45:46;;;;;;;20.40;19.50;;;18.40;1.00;;;;;;4959334;23;20505;-84
2023/08/10 07:48:32;;;;;;;19.60;18.80;;;18.40;1.00;;;;;;4899542;29;20469;-82
2023/08/10 07:51:06;;;;;;;19.67;18.87;;;18.50;99.90;;;;;;4902355;29;20469;-83
2023/08/10 07:53:44;;;;;;;20.20;19.40;;;18.40;99.90;;;;;;4892401;28;20614;-83
2023/08/10 07:56:20;;;;;;;19.87;19.07;;;18.50;99.90;;;;;;4881237;29;20451;-85
2023/08/10 07:58:57;;;;;;;19.27;18.47;;;18.60;99.90;;;;;;4882841;29;20562;-82
2023/08/10 08:01:48;;;;;;;19.40;18.60;;;18.60;1.00;;;;;;4877097;29;20576;-83
2023/08/10 08:04:23;;;;;;;18.53;17.93;;;18.70;1.00;;;;;;4881947;29;21111;-84
2023/08/10 08:07:25;;;;;;;19.30;18.60;;;18.80;1.00;;;;;;4882388;29;20471;-82
2023/08/10 08:09:56;;;;;;;18.87;18.10;;;18.80;99.90;;;;;;4886481;29;20499;-83
2023/08/10 08:12:33;;;;;;;19.57;18.57;;;18.80;99.90;;;;;;4885614;29;20467;-82
2023/08/10 08:15:33;;;;;;;19.10;18.30;;;19.00;99.90;;;;;;4890983;29;20476;-83
2023/08/10 08:21:37;;;;;;;18.43;17.70;;;19.00;99.90;;;;;;4885078;29;20459;-83
2023/08/10 08:24:49;;;;;;;19.17;18.37;;;19.10;1.00;;;;;;4865836;29;20472;-84
2023/08/10 08:27:20;;;;;;;18.43;17.73;;;19.20;1.00;;;;;;4882746;29;20577;-83
2023/08/10 08:29:55;;;;;;;18.37;17.67;;;19.20;99.90;;;;;;4880710;29;20846;-81
2023/08/10 08:35:21;;;;;;;18.33;17.63;;;19.40;99.90;;;;;;4886197;29;20836;-83
2023/08/10 08:41:25;;;;;;;18.40;17.70;;;19.40;1.00;;;;;;4875857;29;21073;-82
2023/08/10 08:46:53;;;;;;;18.43;17.73;;;19.40;1.00;;;;;;4885292;29;20473;-84
2023/08/10 08:49:32;;;;;;;17.83;17.23;;;19.40;99.90;;;;;;4881808;29;20475;-83
2023/08/10 08:52:04;;;;;;;18.53;17.73;;;19.50;99.90;;;;;;4878372;29;20467;-84
2023/08/10 08:55:08;;;;;;;19.13;18.13;;;19.60;99.90;;;;;;4892321;29;20504;-83
2023/08/10 08:58:35;;;;;;;18.37;17.73;;;19.70;1.00;;;;;;4868461;29;20554;-85
2023/08/10 09:01:32;;;;;;;18.17;17.57;;;19.80;1.00;;;;;;4880533;29;20903;-82
2023/08/10 09:04:14;;;;;;;17.87;17.27;;;19.80;1.00;;;;;;4894842;29;20541;-82
2023/08/10 09:06:50;;;;;;;18.30;17.60;;;19.80;99.90;;;;;;4883587;29;20463;-82
2023/08/10 09:09:42;;;;;;;18.10;17.50;;;19.90;1.00;;;;;;4880499;29;20464;-82
2023/08/10 09:12:53;;;;;;;18.30;17.60;;;19.90;1.00;;;;;;4882173;29;21417;-82
2023/08/10 09:15:29;;;;;;;17.93;17.23;;;20.00;99.90;;;;;;4883563;29;20506;-82
2023/08/10 09:21:51;;;;;;;17.90;17.10;;;20.10;41.60;;;;;;4883064;29;21136;-83
2023/08/10 09:24:41;;;;;;;18.10;17.40;;;20.20;62.70;;;;;;4884204;29;20554;-82
2023/08/10 09:27:16;;;;;;;17.50;16.90;;;20.30;9.80;;;;;;4880054;29;20498;-83
2023/08/10 09:29:59;;;;;;;17.80;17.20;;;20.30;1.00;;;;;;4881289;29;20970;-80
2023/08/10 09:33:19;;;;;;;17.50;16.80;;;20.50;1.00;;;;;;4881894;29;20546;-83
2023/08/10 09:36:14;;;;;;;18.07;17.40;;;20.60;1.00;;;;;;4881555;29;20474;-82
2023/08/10 09:39:18;;;;;;;17.33;16.73;;;20.60;1.00;;;;;;4878048;29;20494;-83
2023/08/10 09:41:55;;;;;;;17.97;17.20;;;20.70;1.00;;;;;;4876676;29;20493;-84
2023/08/10 09:44:26;;;;;;;18.60;17.80;;;20.70;1.00;;;;;;4880920;29;20850;-84
2023/08/10 09:47:15;;;;;;;18.20;17.50;;;20.60;1.00;;;;;;4879605;29;20623;-82
2023/08/10 09:49:57;;;;;;;17.03;16.50;;;20.60;1.00;;;;;;4878273;29;20459;-84
2023/08/10 09:52:32;;;;;;;17.80;17.10;;;20.70;1.00;;;;;;4892035;29;20479;-83
2023/08/10 09:55:08;;;;;;;17.10;16.40;;;20.80;1.00;;;;;;4877615;29;21037;-83
2023/08/10 09:57:47;;;;;;;18.57;17.67;;;20.90;1.00;;;;;;4874491;29;21070;-82
2023/08/10 10:00:22;;;;;;;16.80;16.30;;;21.10;99.90;;;;;;4880169;29;20573;-82
2023/08/10 10:03:08;;;;;;;17.73;17.00;;;21.10;99.90;;;;;;4880004;29;20478;-89
2023/08/10 10:05:40;;;;;;;17.77;16.90;;;21.10;1.00;;;;;;4877665;29;20975;-85
2023/08/10 10:08:16;;;;;;;17.77;17.07;;;21.10;1.00;;;;;;4881227;29;20498;-85
2023/08/10 10:10:58;;;;;;;17.97;17.27;;;21.20;99.90;;;;;;4882405;29;21275;-88
2023/08/10 10:13:39;;;;;;;17.00;16.33;;;21.10;99.90;;;;;;4882942;29;20486;-85
2023/08/10 10:16:15;;;;;;;17.03;16.43;;;21.20;99.90;;;;;;4883540;29;22125;-87
2023/08/10 10:18:51;;;;;;;18.33;17.67;;;21.20;99.90;;;;;;4886302;29;20497;-87
2023/08/10 10:21:29;;;;;;;17.60;16.90;;;21.30;99.90;;;;;;4886425;29;20475;-87
2023/08/10 10:24:13;;;;;;;17.02;16.42;;;21.30;99.90;;;;;;4891803;29;20532;-86
2023/08/10 10:27:18;;;;;;;17.23;16.63;;;21.40;99.90;;;;;;4877947;29;20241;-86
2023/08/10 10:30:04;;;;;;;17.57;16.97;;;21.50;99.90;;;;;;4886637;29;21076;-86
2023/08/10 10:32:52;;;;;;;17.50;16.90;;;21.50;99.90;;;;;;4890650;29;20467;-87
2023/08/10 10:35:32;;;;;;;17.40;16.80;;;21.50;99.90;;;;;;4889148;29;20473;-87
2023/08/10 10:38:08;;;;;;;16.93;16.23;;;21.50;99.90;;;;;;4892871;29;20459;-86
2023/08/10 10:41:08;;;;;;;17.53;16.93;;;21.50;99.90;;;;;;4900943;29;20519;-85
2023/08/10 10:44:41;;;;;;;16.50;16.00;;;21.50;99.90;;;;;;5037491;23;20506;-85
2023/08/10 10:47:39;;;;;;;17.40;16.60;;;21.60;99.90;;;;;;4872446;29;20521;-85
2023/08/10 10:50:23;;;;;;;17.00;16.40;;;21.60;99.90;;;;;;4886763;29;20461;-83
2023/08/10 10:56:05;;;;;;;17.80;17.10;;;21.80;99.90;;;;;;4886539;29;20471;-81
2023/08/10 10:58:45;;;;;;;17.47;16.77;;;21.90;99.90;;;;;;4894491;29;20527;-87
2023/08/10 11:01:32;;;;;;;17.53;16.90;;;22.00;99.90;;;;;;4895996;29;20518;-84
2023/08/10 11:04:24;;;;;;;17.73;17.03;;;21.90;99.90;;;;;;4896288;29;20483;-83
2023/08/10 11:07:05;;;;;;;17.13;16.60;;;22.00;99.90;;;;;;4894341;29;20524;-83
2023/08/10 11:09:41;;;;;;;17.03;16.43;;;21.90;99.90;;;;;;4894853;29;20532;-82
2023/08/10 11:12:19;;;;;;;18.07;17.37;;;21.80;99.90;;;;;;4893936;29;20462;-82
2023/08/10 11:14:51;;;;;;;17.50;16.80;;;21.80;99.90;;;;;;4896482;29;20483;-82
2023/08/10 11:17:29;;;;;;;16.40;15.83;;;21.80;99.90;;;;;;4894377;29;20503;-82
2023/08/10 11:20:25;;;;;;;16.63;16.03;;;21.80;99.90;;;;;;4886798;29;20479;-85
2023/08/10 11:23:06;;;;;;;16.50;16.00;;;21.90;99.90;;;;;;4879735;29;20465;-82
2023/08/10 11:25:52;;;;;;;17.50;16.80;;;21.90;99.90;;;;;;4885309;29;20549;-81
2023/08/10 11:28:29;;;;;;;16.73;16.13;;;21.90;99.90;;;;;;4883600;29;20467;-83
2023/08/10 11:31:42;;;;;;;17.60;16.70;;;22.00;99.90;;;;;;4889660;29;20519;-82
2023/08/10 11:34:28;;;;;;;16.80;16.30;;;22.00;99.90;;;;;;4884367;29;20498;-84
2023/08/10 11:37:16;;;;;;;17.27;16.67;;;22.00;99.90;;;;;;4884313;29;20479;-82
2023/08/10 11:40:16;;;;;;;16.70;16.00;;;22.00;99.90;;;;;;4886307;29;20862;-83
2023/08/10 11:42:52;;;;;;;17.60;16.90;;;22.00;99.90;;;;;;4887370;29;20488;-82
2023/08/10 11:45:27;;;;;;;17.30;16.50;;;22.00;99.90;;;;;;4878640;29;20574;-80
2023/08/10 11:48:13;;;;;;;16.90;16.33;;;22.10;99.90;;;;;;4882878;29;20462;-83
2023/08/10 11:50:44;;;;;;;16.63;16.03;;;22.30;99.90;;;;;;4880831;29;20972;-84
2023/08/10 11:53:36;;;;;;;16.70;16.10;;;22.30;99.90;;;;;;4881360;29;20489;-84
2023/08/10 11:56:11;;;;;;;17.57;16.87;;;22.30;99.90;;;;;;4885231;29;20463;-82
2023/08/10 11:58:47;;;;;;;16.80;16.30;;;22.40;99.90;;;;;;4883535;29;20881;-82
2023/08/10 12:01:20;;;;;;;16.80;16.20;;;22.50;99.90;;;;;;4894832;29;22791;-80
2023/08/10 12:03:58;;;;;;;16.93;16.40;;;22.40;99.90;;;;;;4883260;29;20491;-84
2023/08/10 12:06:40;;;;;;;17.13;16.43;;;22.40;99.90;;;;;;4888028;29;20473;-83
2023/08/10 12:09:18;;;;;;;17.23;16.70;;;22.40;99.90;;;;;;4885338;29;20860;-80
2023/08/10 12:12:02;;;;;;;17.50;16.90;;;22.50;99.90;;;;;;4887100;29;20462;-82
2023/08/10 12:14:39;;;;;;;17.70;17.10;;;22.40;99.90;;;;;;4883439;29;20535;-80
2023/08/10 12:17:11;;;;;;;17.10;16.50;;;22.40;99.90;;;;;;4904769;29;20510;-79
2023/08/10 12:19:40;;;;;;;17.40;16.70;;;22.40;99.90;;;;;;4897827;29;20475;-81
2023/08/10 12:22:20;;;;;;;16.67;16.17;;;22.40;99.90;;;;;;4887157;29;20824;-83
2023/08/10 12:24:58;;;;;;;17.33;16.53;;;22.50;99.90;;;;;;4878946;29;20495;-83
2023/08/10 12:27:34;;;;;;;16.40;15.90;;;22.50;99.90;;;;;;4881786;29;21055;-81
2023/08/10 12:30:14;;;;;;;16.47;15.97;;;22.50;99.90;;;;;;4901329;29;20463;-82
2023/08/10 12:32:52;;;;;;;18.17;16.97;;;22.50;99.90;;;;;;4887168;29;20474;-83
2023/08/10 12:35:47;;;;;;;16.93;16.33;;;22.50;99.90;;;;;;4887082;29;20484;-83
2023/08/10 12:38:27;;;;;;;17.00;16.40;;;22.60;99.90;;;;;;4881352;29;21175;-82
2023/08/10 12:41:08;;;;;;;18.47;17.50;;;22.60;99.90;;;;;;4880993;29;20486;-82
2023/08/10 12:44:00;;;;;;;17.03;16.43;;;22.60;99.90;;;;;;4896536;29;20925;-82
2023/08/10 12:46:35;;;;;;;17.20;16.60;;;22.60;99.90;;;;;;4885755;29;20687;-83
2023/08/10 12:49:04;;;;;;;17.13;16.63;;;22.70;99.90;;;;;;4883041;29;20458;-83
2023/08/10 12:51:42;;;;;;;17.57;16.90;;;22.70;99.90;;;;;;4886159;29;20825;-84
2023/08/10 12:54:18;;;;;;;17.30;16.70;;;22.70;99.90;;;;;;4885382;29;20490;-86
2023/08/10 12:57:24;;;;;;;17.40;16.80;;;22.80;99.90;;;;;;4884181;29;20463;-83
2023/08/10 13:00:08;;;;;;;17.77;17.17;;;22.80;99.90;;;;;;4885752;29;20924;-81
2023/08/10 13:05:32;;;;;;;17.03;16.40;;;22.90;99.90;;;;;;4888982;29;20605;-82
2023/08/10 13:08:04;;;;;;;17.23;16.63;;;22.80;99.90;;;;;;4888148;29;20482;-83
2023/08/10 13:10:36;;;;;;;16.87;16.37;;;22.80;99.90;;;;;;4886820;29;20466;-84
2023/08/10 13:13:09;;;;;;;17.33;16.80;;;22.80;99.90;;;;;;4887466;29;20522;-83
2023/08/10 13:16:07;;;;;;;16.93;16.43;;;22.90;99.90;;;;;;4885143;29;20459;-83
2023/08/10 13:18:38;;;;;;;17.33;16.73;;;23.10;99.90;;;;;;4889739;29;20479;-81
2023/08/10 13:21:16;;;;;;;17.70;16.90;;;23.00;99.90;;;;;;4884664;29;20482;-83
2023/08/10 13:24:15;;;;;;;17.00;16.40;;;23.10;99.90;;;;;;4901913;29;20479;-83
2023/08/10 13:26:57;;;;;;;16.67;16.07;;;23.10;99.90;;;;;;4824176;29;20624;-78
2023/08/10 13:29:33;;;;;;;17.07;16.43;;;23.10;99.90;;;;;;4838553;29;20466;-82
2023/08/10 13:32:17;;;;;;;16.90;16.30;;;23.10;99.90;;;;;;4881311;29;20472;-84
2023/08/10 13:34:57;;;;;;;16.33;15.83;;;23.10;99.90;;;;;;4884375;29;20491;-84
2023/08/10 13:37:38;;;;;;;17.27;16.47;;;23.10;99.90;;;;;;4885804;29;20497;-86
2023/08/10 13:40:18;;;;;;;16.80;16.20;;;23.10;99.90;;;;;;4884130;29;20849;-82
2023/08/10 13:42:57;;;;;;;16.87;16.27;;;23.00;99.90;;;;;;4885687;29;20454;-83
2023/08/10 13:45:39;;;;;;;17.00;16.33;;;23.10;99.90;;;;;;4887088;29;21004;-86
2023/08/10 13:48:13;;;;;;;16.60;16.10;;;23.10;99.90;;;;;;4888754;29;20484;-85
2023/08/10 13:50:45;;;;;;;16.73;15.93;;;23.20;99.90;;;;;;4890122;29;20457;-85
2023/08/10 13:53:18;;;;;;;16.93;16.27;;;23.10;99.90;;;;;;4889016;29;21123;-84